Fountain City, Indiana
Current Conditions -  °F | °C
As of 2:53 PM on Thursday 29 Jan 2015 (Local Time) from KMIE Reporting Station
Haze Haze  
Wind Chill: 24°   Ceiling: 900
Heat Index: 34°   Visibility: 1.7mi
Dew Point: 31°   Wind: 16mph
Humidity: 89%   Direction: 290°WNW
Pressure: 29.88"   Gusts: 28mph
Location:  39.96°N, 84.92°W
Report Text: KMIE 291953Z 29014G24KT 1 3/4SM BR BKN009 OVC014 01/M01 A2988 RMK AO2 PK WND 30026/1930 CIG 006V012 SLP124 T00111006
Loading
Personal Weather Stations






























Interactive Weather Map New forecast layout! Learn more

10-Day Weather Forecast

Advertisements
Track Severe Weather on mobile